Time,TemperatureF,DewpointF,PressureIn,WindDirection,WindDirectionDegrees,WindSpeedMPH,WindSpeedGustMPH,Humidity,HourlyPrecipIn,Conditions,Clouds,dailyrainin,SoftwareType,DateUTC
2013-04-20 10:33:00,76.0,49.0,29.92,ESE,114,0.0,2.0,38,0.00,,,0.00,,2013-04-20 17:33:00,
2013-04-20 11:02:00,78.0,47.0,29.91,East,86,0.0,0.0,33,0.00,,,0.00,,2013-04-20 18:02:00,
2013-04-20 11:12:00,78.0,47.0,29.91,East,86,0.0,0.0,33,0.00,,,0.00,,2013-04-20 18:12:00,
2013-04-20 11:22:00,78.0,47.0,29.91,East,86,0.0,0.0,33,0.00,,,0.00,,2013-04-20 18:22:00,
2013-04-20 11:32:00,80.0,47.0,29.90,South,184,0.0,3.0,31,0.00,,,0.00,,2013-04-20 18:32:00,
2013-04-20 11:41:00,80.0,47.0,29.90,South,184,0.0,3.0,31,0.00,,,0.00,,2013-04-20 18:41:00,
2013-04-20 11:52:00,81.0,47.0,29.90,ESE,114,0.0,3.0,30,0.00,,,0.00,,2013-04-20 18:52:00,
2013-04-20 12:01:00,81.0,47.0,29.90,ESE,114,0.0,3.0,30,0.00,,,0.00,,2013-04-20 19:01:00,
2013-04-20 12:11:00,81.0,47.0,29.90,ESE,114,0.0,3.0,30,0.00,,,0.00,,2013-04-20 19:11:00,
2013-04-20 12:21:00,81.0,47.0,29.90,ESE,114,0.0,3.0,30,0.00,,,0.00,,2013-04-20 19:21:00,
2013-04-20 12:32:00,84.0,45.0,29.89,South,184,0.0,5.0,26,0.00,,,0.00,,2013-04-20 19:32:00,
2013-04-20 12:42:00,84.0,45.0,29.89,South,184,0.0,5.0,26,0.00,,,0.00,,2013-04-20 19:42:00,
2013-04-20 12:52:00,84.0,45.0,29.89,South,184,0.0,5.0,26,0.00,,,0.00,,2013-04-20 19:52:00,
2013-04-20 13:01:00,85.0,45.0,29.88,South,186,1.0,7.0,25,0.00,,,0.00,,2013-04-20 20:01:00,
2013-04-20 13:11:00,85.0,45.0,29.88,South,186,1.0,7.0,25,0.00,,,0.00,,2013-04-20 20:11:00,
2013-04-20 13:21:00,85.0,45.0,29.88,South,186,1.0,7.0,25,0.00,,,0.00,,2013-04-20 20:21:00,
2013-04-20 13:32:00,85.0,45.0,29.88,South,186,1.0,7.0,25,0.00,,,0.00,,2013-04-20 20:32:00,
2013-04-20 14:01:00,85.0,54.0,29.85,SSE,166,1.0,8.0,35,0.00,,,0.00,,2013-04-20 21:01:00,
2013-04-20 14:12:00,85.0,54.0,29.85,SSE,166,1.0,8.0,35,0.00,,,0.00,,2013-04-20 21:12:00,
2013-04-20 14:21:00,85.0,54.0,29.85,SSE,166,1.0,8.0,35,0.00,,,0.00,,2013-04-20 21:21:00,
2013-04-20 14:32:00,85.0,54.0,29.85,SSE,166,1.0,8.0,35,0.00,,,0.00,,2013-04-20 21:32:00,
2013-04-20 14:42:00,85.0,54.0,29.85,SSE,166,1.0,8.0,35,0.00,,,0.00,,2013-04-20 21:42:00,
2013-04-20 15:32:00,79.0,53.0,29.84,SSW,196,2.0,12.0,40,0.00,,,0.00,,2013-04-20 22:32:00,
2013-04-20 15:42:00,79.0,53.0,29.84,SSW,196,2.0,12.0,40,0.00,,,0.00,,2013-04-20 22:42:00,
2013-04-20 15:52:00,79.0,53.0,29.84,SSW,196,2.0,12.0,40,0.00,,,0.00,,2013-04-20 22:52:00,
2013-04-20 16:02:00,80.0,53.0,29.84,South,176,5.0,11.0,39,0.00,,,0.00,,2013-04-20 23:02:00,
2013-04-20 16:11:00,80.0,53.0,29.84,South,176,5.0,11.0,39,0.00,,,0.00,,2013-04-20 23:11:00,
2013-04-20 16:22:00,80.0,53.0,29.84,South,176,5.0,11.0,39,0.00,,,0.00,,2013-04-20 23:22:00,
2013-04-20 16:32:00,80.0,53.0,29.84,South,176,5.0,11.0,39,0.00,,,0.00,,2013-04-20 23:32:00,
2013-04-20 16:41:00,80.0,53.0,29.84,South,176,5.0,11.0,39,0.00,,,0.00,,2013-04-20 23:41:00,